createdAt,value
2022-11-02T00:04:48.832Z,98647.84
2022-11-02T00:09:50.615Z,98655.88
2022-11-02T00:14:52.811Z,98662.78
2022-11-02T00:19:54.683Z,98662.34
2022-11-02T00:24:56.673Z,98667.50
2022-11-02T00:30:00.233Z,98663.56
2022-11-02T00:35:02.112Z,98681.81
2022-11-02T00:40:04.715Z,98673.84
2022-11-02T00:45:07.679Z,98675.03
2022-11-02T00:50:10.029Z,98681.25
2022-11-02T00:55:15.257Z,98679.75
2022-11-02T01:00:19.509Z,98672.72
2022-11-02T01:05:22.240Z,98673.56
2022-11-02T01:10:26.183Z,98670.50
2022-11-02T01:15:28.209Z,98681.31
2022-11-02T01:20:30.004Z,98674.59
2022-11-02T01:25:31.854Z,98681.47
2022-11-02T01:30:33.962Z,98676.03
2022-11-02T01:35:38.589Z,98675.72
2022-11-02T01:40:40.780Z,98669.19
2022-11-02T01:45:42.605Z,98660.34
2022-11-02T01:50:44.658Z,98671.78
2022-11-02T01:55:46.776Z,98669.13
2022-11-02T02:00:48.645Z,98667.56
2022-11-02T02:05:58.016Z,98667.41
2022-11-02T02:10:59.865Z,98672.25
2022-11-02T02:16:29.893Z,98660.06
2022-11-02T02:21:57.447Z,98660.50
2022-11-02T02:27:05.405Z,98659.00
2022-11-02T02:32:15.216Z,98661.50
2022-11-02T02:37:31.550Z,98660.06
2022-11-02T02:42:47.649Z,98658.34
2022-11-02T02:48:03.779Z,98655.47
2022-11-02T02:53:07.678Z,98660.78
2022-11-02T02:58:18.583Z,98659.63
2022-11-02T03:03:24.034Z,98668.88
2022-11-02T03:08:25.909Z,98676.25
2022-11-02T03:14:09.574Z,98669.44
2022-11-02T03:19:35.869Z,98662.78
2022-11-02T03:24:48.528Z,98662.94
2022-11-02T03:29:57.580Z,98659.78
2022-11-02T03:35:06.367Z,98661.28
2022-11-02T03:40:08.497Z,98665.22
2022-11-02T03:45:17.435Z,98676.53
2022-11-02T03:50:23.243Z,98684.25
2022-11-02T03:55:34.587Z,98687.25
2022-11-02T04:00:38.455Z,98693.81
2022-11-02T04:05:43.833Z,98690.22
2022-11-02T04:11:18.547Z,98689.28
2022-11-02T04:16:27.671Z,98674.38
2022-11-02T04:21:31.596Z,98671.13
2022-11-02T04:26:35.204Z,98692.38
2022-11-02T04:31:37.561Z,98684.81
2022-11-02T04:36:39.674Z,98679.84
2022-11-02T04:41:42.897Z,98679.91
2022-11-02T04:47:04.951Z,98676.41
2022-11-02T04:52:09.937Z,98670.53
2022-11-02T04:57:16.152Z,98669.66
2022-11-02T05:02:19.092Z,98657.91
2022-11-02T05:07:22.844Z,98668.78
2022-11-02T05:12:29.164Z,98670.25
2022-11-02T05:17:31.512Z,98663.84
2022-11-02T05:22:33.484Z,98668.41
2022-11-02T05:27:35.427Z,98677.25
2022-11-02T05:32:38.091Z,98675.19
2022-11-02T05:37:40.047Z,98686.88
2022-11-02T05:42:42.620Z,98675.19
2022-11-02T05:47:44.404Z,98681.44
2022-11-02T05:52:46.516Z,98678.38
2022-11-02T05:57:55.793Z,98671.13
2022-11-02T06:02:58.764Z,98681.72
2022-11-02T06:08:01.832Z,98678.66
2022-11-02T06:13:04.893Z,98675.59
2022-11-02T06:18:07.962Z,98688.22
2022-11-02T06:23:09.823Z,98694.25
2022-11-02T06:28:11.748Z,98703.69
2022-11-02T06:33:14.130Z,98711.75
2022-11-02T06:38:16.778Z,98707.53
2022-11-02T06:43:18.943Z,98708.47
2022-11-02T06:48:21.055Z,98708.88
2022-11-02T06:53:22.961Z,98705.47
2022-11-02T06:58:25.636Z,98705.22
2022-11-02T07:03:28.127Z,98699.38
2022-11-02T07:08:30.014Z,98723.66
2022-11-02T07:13:31.911Z,98718.56
2022-11-02T07:18:33.744Z,98729.09
2022-11-02T07:23:35.634Z,98729.06
2022-11-02T07:28:38.452Z,98729.25
2022-11-02T07:33:40.357Z,98723.50
2022-11-02T07:38:42.656Z,98718.53
2022-11-02T07:43:44.460Z,98706.50
2022-11-02T07:48:54.761Z,98705.38
2022-11-02T07:53:56.574Z,98702.47
2022-11-02T07:58:58.509Z,98702.34
2022-11-02T08:04:00.309Z,98699.81
2022-11-02T08:09:03.208Z,98708.97
2022-11-02T08:14:05.087Z,98720.50
2022-11-02T08:19:07.050Z,98704.97
2022-11-02T08:24:09.048Z,98699.53
2022-11-02T08:29:10.972Z,98707.47
2022-11-02T08:34:12.919Z,98713.81
2022-11-02T08:39:18.609Z,98722.09
2022-11-02T08:44:21.354Z,98726.03
2022-11-02T08:49:23.803Z,98726.53
2022-11-02T08:54:25.654Z,98723.56
2022-11-02T08:59:27.510Z,98727.53
2022-11-02T09:04:29.326Z,98719.09
2022-11-02T09:09:31.181Z,98730.06
2022-11-02T09:14:32.978Z,98727.03
2022-11-02T09:19:34.792Z,98726.31
2022-11-02T09:24:36.634Z,98737.25
2022-11-02T09:29:38.466Z,98741.25
2022-11-02T09:34:40.318Z,98738.13
2022-11-02T09:39:42.387Z,98753.03
2022-11-02T09:44:55.204Z,98742.34
2022-11-02T09:50:01.532Z,98772.31
2022-11-02T09:55:10.591Z,98763.63
2022-11-02T10:00:15.993Z,98765.50
2022-11-02T10:05:41.494Z,98771.31
2022-11-02T10:10:49.379Z,98770.47
2022-11-02T10:15:56.081Z,98764.56
2022-11-02T10:21:07.031Z,98755.44
2022-11-02T10:26:19.662Z,98769.06
2022-11-02T10:31:26.600Z,98770.97
2022-11-02T10:36:53.068Z,98764.56
2022-11-02T10:42:03.706Z,98764.25
2022-11-02T10:47:15.869Z,98759.59
2022-11-02T10:52:18.675Z,98756.22
2022-11-02T10:57:24.568Z,98765.28
2022-11-02T11:02:26.679Z,98769.25
2022-11-02T11:07:29.570Z,98772.34
2022-11-02T11:12:38.871Z,98774.66
2022-11-02T11:23:12.422Z,98775.72
2022-11-02T11:28:26.927Z,98778.44
2022-11-02T11:33:30.479Z,98778.03
2022-11-02T11:38:32.507Z,98780.41
2022-11-02T11:43:38.589Z,98778.63
2022-11-02T11:48:41.988Z,98782.88
2022-11-02T11:54:19.007Z,98781.28
2022-11-02T11:59:24.492Z,98774.97
2022-11-02T12:04:31.626Z,98785.81
2022-11-02T12:09:55.264Z,98787.91
2022-11-02T12:15:16.933Z,98781.22
2022-11-02T12:20:56.669Z,98780.06
2022-11-02T12:26:27.972Z,98768.78
2022-11-02T12:31:42.185Z,98775.53
2022-11-02T12:37:40.866Z,98785.25
2022-11-02T12:43:05.622Z,98770.81
2022-11-02T12:48:09.746Z,98783.44
2022-11-02T12:53:17.651Z,98768.09
2022-11-02T12:58:27.795Z,98754.41
2022-11-02T13:03:54.865Z,98757.59
2022-11-02T13:09:12.912Z,98754.34
2022-11-02T13:14:19.950Z,98754.75
2022-11-02T13:19:30.142Z,98764.38
2022-11-02T13:24:38.167Z,98760.72
2022-11-02T13:29:48.745Z,98753.03
2022-11-02T13:34:54.062Z,98770.22
2022-11-02T13:40:02.835Z,98761.47
2022-11-02T13:45:15.175Z,98779.22
2022-11-02T13:50:22.289Z,98786.94
2022-11-02T13:55:33.471Z,98791.00
2022-11-02T14:00:44.402Z,98789.72
2022-11-02T14:05:55.314Z,98792.28
2022-11-02T14:11:45.380Z,98792.88
2022-11-02T14:16:50.300Z,98782.53
2022-11-02T14:21:55.038Z,98784.69
2022-11-02T14:26:57.569Z,98786.59
2022-11-02T14:32:06.021Z,98773.94
2022-11-02T14:37:16.651Z,98765.34
2022-11-02T14:42:33.468Z,98768.06
2022-11-02T14:47:37.418Z,98766.38
2022-11-02T14:52:42.605Z,98764.69
2022-11-02T14:58:11.484Z,98778.72
2022-11-02T15:03:25.924Z,98776.38
2022-11-02T15:08:48.159Z,98784.81
2022-11-02T15:13:49.991Z,98781.78
2022-11-02T15:18:52.337Z,98787.50
2022-11-02T15:24:15.586Z,98779.66
2022-11-02T15:29:34.495Z,98787.84
2022-11-02T15:34:42.291Z,98798.91
2022-11-02T15:39:55.375Z,98806.44
2022-11-02T15:45:42.147Z,98818.72
2022-11-02T15:51:08.380Z,98818.50
2022-11-02T15:56:17.519Z,98830.91
2022-11-02T16:01:22.727Z,98829.94
2022-11-02T16:06:28.426Z,98843.47
2022-11-02T16:11:30.545Z,98843.75
2022-11-02T16:16:35.884Z,98852.94
2022-11-02T16:21:38.164Z,98849.06
2022-11-02T16:26:43.008Z,98849.66
2022-11-02T16:31:45.517Z,98862.75
2022-11-02T16:36:48.047Z,98865.72
2022-11-02T16:41:52.658Z,98860.13
2022-11-02T16:47:00.993Z,98867.00
2022-11-02T16:52:21.375Z,98874.97
2022-11-02T16:57:27.193Z,98878.25
2022-11-02T17:02:47.682Z,98887.59
2022-11-02T17:07:59.009Z,98893.19
2022-11-02T17:13:03.027Z,98895.59
2022-11-02T17:18:08.133Z,98904.88
2022-11-02T17:23:37.146Z,98906.50
2022-11-02T17:28:45.076Z,98893.97
2022-11-02T17:33:47.604Z,98896.16
2022-11-02T17:38:49.705Z,98900.91
2022-11-02T17:43:51.845Z,98903.75
2022-11-02T17:48:53.726Z,98900.63
2022-11-02T17:53:55.915Z,98903.19
2022-11-02T17:58:58.734Z,98908.03
2022-11-02T18:04:00.879Z,98905.44
2022-11-02T18:09:12.413Z,98916.09
2022-11-02T18:14:17.084Z,98910.09
2022-11-02T18:19:19.986Z,98902.66
2022-11-02T18:24:22.444Z,98901.97
2022-11-02T18:29:24.952Z,98888.88
2022-11-02T18:34:28.988Z,98893.44
2022-11-02T18:39:32.521Z,98888.94
2022-11-02T18:44:34.872Z,98892.63
2022-11-02T18:49:37.544Z,98892.09
2022-11-02T18:54:42.985Z,98885.09
2022-11-02T18:59:46.268Z,98887.19
2022-11-02T19:04:58.807Z,98894.47
2022-11-02T19:10:04.347Z,98892.63
2022-11-02T19:15:07.148Z,98892.63
2022-11-02T19:20:10.103Z,98889.66
2022-11-02T19:25:13.145Z,98885.41
2022-11-02T19:30:15.088Z,98893.34
2022-11-02T19:35:17.249Z,98892.03
2022-11-02T19:40:19.894Z,98893.50
2022-11-02T19:45:22.130Z,98886.47
2022-11-02T19:50:24.306Z,98880.94
2022-11-02T19:55:29.535Z,98891.56
2022-11-02T20:00:31.519Z,98885.75
2022-11-02T20:05:33.756Z,98891.56
2022-11-02T20:10:35.788Z,98889.28
2022-11-02T20:15:40.474Z,98887.00
2022-11-02T20:20:42.901Z,98907.63
2022-11-02T20:25:45.758Z,98899.72
2022-11-02T20:30:48.270Z,98905.22
2022-11-02T20:35:52.279Z,98905.03
2022-11-02T20:40:55.123Z,98910.63
2022-11-02T20:51:25.176Z,98916.78
2022-11-02T20:56:27.072Z,98925.78
2022-11-02T21:01:29.023Z,98919.53
2022-11-02T21:06:30.924Z,98923.00
2022-11-02T21:11:51.647Z,98923.00
2022-11-02T21:16:53.397Z,98923.22
2022-11-02T21:21:59.473Z,98923.56
2022-11-02T21:27:02.213Z,98921.56
2022-11-02T21:32:04.443Z,98925.50
2022-11-02T21:37:08.032Z,98927.44
2022-11-02T21:42:09.900Z,98924.25
2022-11-02T21:47:12.568Z,98917.44
2022-11-02T21:52:14.928Z,98929.66
2022-11-02T21:57:16.861Z,98931.16
2022-11-02T22:02:19.005Z,98932.19
2022-11-02T22:07:21.467Z,98925.41
2022-11-02T22:12:42.087Z,98927.66
2022-11-02T22:17:49.593Z,98920.44
2022-11-02T22:22:52.034Z,98915.34
2022-11-02T22:27:53.822Z,98915.88
2022-11-02T22:32:55.613Z,98907.06
2022-11-02T22:38:15.977Z,98911.63
2022-11-02T22:43:17.788Z,98916.34
2022-11-02T22:48:19.595Z,98914.06
2022-11-02T22:53:24.021Z,98920.63
2022-11-02T22:58:27.833Z,98915.63
2022-11-02T23:03:33.665Z,98918.75
2022-11-02T23:08:37.829Z,98916.44
2022-11-02T23:13:40.520Z,98926.81
2022-11-02T23:19:00.869Z,98933.13
2022-11-02T23:24:21.598Z,98929.09
2022-11-02T23:29:41.926Z,98923.22
2022-11-02T23:35:03.699Z,98933.41
2022-11-02T23:40:06.407Z,98922.16
2022-11-02T23:45:09.272Z,98914.22
2022-11-02T23:50:11.429Z,98907.56
2022-11-02T23:55:39.777Z,98901.25
